Westfield, NC (27053)

10:35 PM EST on February 08, 2016 (GMT -0500)
Hanging Rock State Park Visitor Center | | Change Station
CLOSE
Current Station
Personal Weather Station
Location: Danbury, NC
Elevation: 1683 ft
Nearby Weather Stations

Elev 1683 ft 36.40 °N, 80.27 °W | Updated 10 minutes ago

Partly Cloudy
Partly Cloudy
34.2 °F
Feels Like 32 °F
N
3.2
Wind Variable Wind from West

Today
High -- | Low -- °F
--% Chance of Precip.
Yesterday
High -- | Low -- °F
Precip. -- in
Pressure 29.67 in
Visibility 10.0 miles
Clouds Scattered Clouds 9500 ft
Windchill 32 °F
Dew Point 28 °F
Humidity 77%
Rainfall 0.00 in
Snow Depth Not available.
7:16 AM 5:54 PM
New Moon, 0% visible
METAR KMWK 090315Z AUTO 26003KT 10SM SCT095 02/M02 A2967 RMK AO2 T00241020
Pressure 29.67 in
Visibility 10.0 miles
Clouds Scattered Clouds 9500 ft
Windchill 32 °F
Dew Point 28 °F
Humidity 77%
Rainfall 0.00 in
Snow Depth Not available.
7:16 AM 5:54 PM
New Moon, 0% visible
METAR KMWK 090315Z AUTO 26003KT 10SM SCT095 02/M02 A2967 RMK AO2 T00241020

10-Day Weather Forecast

Almanac

Astronomy

Feb. 08, 2016 Rise Set
Actual Time
Civil Twilight
Nautical Twilight
Astronomical Twilight
Moon
Length of Visible Light
Length of Day
Tomorrow will be .
, % of the Moon is Illuminated

Today's Extremes

State Highs State Lows

Community

WunderPhotos

Upload Photos

1,891,527 photos uploaded!

WunderBlog® & News

Nearby

Air Quality

  Air Quality AQ Index Pollutant
Not available.

Snow Depth

Station Depth Elevation

Earthquake Activity

City Distance Mag. Time & Date
Minimum magnitude displayed is 2.5.

Coastal Water Temperatures

Place Temperature

Stations

Nearby Weather Stations

Station Location Temp. Windchill Dew Point Humidity Wind Precip. Elev Updated Type
                   

Watches & Warnings

There are currently no watches in effect.